createdAt,value
2022-10-22T02:56:02.096Z,1007.174
2022-10-22T03:00:01.672Z,1007.174
2022-10-22T03:07:01.556Z,1007.151
2022-10-22T03:14:01.575Z,1007.151
2022-10-22T03:21:02.177Z,1007.2
2022-10-22T03:28:02.347Z,1007.2
2022-10-22T03:35:02.050Z,1007.198
2022-10-22T03:42:01.631Z,1007.198
2022-10-22T03:49:01.593Z,1007.312
2022-10-22T03:56:02.046Z,1007.312
2022-10-22T04:00:01.635Z,1007.276
2022-10-22T04:07:02.250Z,1007.276
2022-10-22T04:14:01.616Z,1007.554
2022-10-22T04:21:02.300Z,1007.554
2022-10-22T04:28:01.366Z,1007.611
2022-10-22T04:35:01.935Z,1007.683
2022-10-22T04:42:01.495Z,1007.683
2022-10-22T04:49:02.045Z,1007.858
2022-10-22T04:56:01.946Z,1007.858
2022-10-22T05:00:02.635Z,1007.858
2022-10-22T05:07:01.793Z,1007.755
2022-10-22T05:14:01.947Z,1007.93
2022-10-22T05:21:02.331Z,1007.93
2022-10-22T05:28:01.543Z,1008.048
2022-10-22T05:35:01.979Z,1008.048
2022-10-22T05:42:01.389Z,1008.196
2022-10-22T05:49:01.723Z,1008.196
2022-10-22T05:56:01.833Z,1008.291
2022-10-22T06:00:02.538Z,1008.291
2022-10-22T06:07:02.059Z,1008.467
2022-10-22T06:14:02.228Z,1008.467
2022-10-22T06:21:02.273Z,1008.454
2022-10-22T06:28:02.158Z,1008.454
2022-10-22T06:35:02.012Z,1008.676
2022-10-22T06:42:02.106Z,1008.676
2022-10-22T06:49:01.928Z,1008.958
2022-10-22T06:56:01.519Z,1008.958
2022-10-22T07:00:02.186Z,1009.173
2022-10-22T07:07:02.214Z,1009.173
2022-10-22T07:14:02.182Z,1009.304
2022-10-22T07:21:01.354Z,1009.304
2022-10-22T07:28:02.318Z,1009.455
2022-10-22T07:35:01.579Z,1009.565
2022-10-22T07:42:01.913Z,1009.565
2022-10-22T07:49:01.784Z,1009.757
2022-10-22T07:56:01.710Z,1009.757
2022-10-22T08:00:02.424Z,1009.757
2022-10-22T08:07:01.824Z,1009.852
2022-10-22T08:14:02.191Z,1010.152
2022-10-22T08:21:01.593Z,1010.152
2022-10-22T08:28:02.099Z,1010.326
2022-10-22T08:35:02.421Z,1010.326
2022-10-22T08:42:01.582Z,1010.488
2022-10-22T08:49:02.292Z,1010.488
2022-10-22T08:56:01.733Z,1010.564
2022-10-22T09:00:02.390Z,1010.564
2022-10-22T09:07:01.655Z,1010.682
2022-10-22T09:14:02.141Z,1010.682
2022-10-22T09:21:01.819Z,1010.817
2022-10-22T09:28:01.500Z,1010.817
2022-10-22T09:35:02.214Z,1010.957
2022-10-22T09:42:01.403Z,1010.957
2022-10-22T09:49:02.337Z,1010.947
2022-10-22T09:56:02.255Z,1010.947
2022-10-22T10:00:01.926Z,1011.057
2022-10-22T10:07:01.418Z,1011.057
2022-10-22T10:14:01.631Z,1011.236
2022-10-22T10:21:02.195Z,1011.236
2022-10-22T10:28:01.754Z,1011.378
2022-10-22T10:35:01.935Z,1011.428
2022-10-22T10:42:01.551Z,1011.428
2022-10-22T10:49:01.738Z,1011.585
2022-10-22T10:56:01.706Z,1011.585
2022-10-22T11:00:02.374Z,1011.585
2022-10-22T11:07:11.017Z,1011.504
2022-10-22T11:14:01.481Z,1011.504
2022-10-22T11:21:01.785Z,1011.504
2022-10-22T11:28:07.902Z,1011.504
2022-10-22T11:56:01.388Z,1011.706
2022-10-22T12:00:01.939Z,1011.706
2022-10-22T12:07:02.238Z,1011.632
2022-10-22T12:14:01.842Z,1011.632
2022-10-22T12:21:02.329Z,1011.632
2022-10-22T12:28:02.023Z,1011.632
2022-10-22T12:35:02.574Z,1011.524
2022-10-22T12:42:01.969Z,1011.524
2022-10-22T12:49:02.228Z,1011.483
2022-10-22T12:56:02.176Z,1011.483
2022-10-22T13:00:01.943Z,1011.425
2022-10-22T13:07:01.579Z,1011.425
2022-10-22T13:14:02.150Z,1011.407
2022-10-22T13:21:01.377Z,1011.407
2022-10-22T13:28:01.546Z,1011.488
2022-10-22T13:35:01.753Z,1011.465
2022-10-22T13:42:02.290Z,1011.465
2022-10-22T13:49:02.082Z,1011.542
2022-10-22T13:56:01.792Z,1011.542
2022-10-22T14:00:02.445Z,1011.542
2022-10-22T14:07:03.723Z,1011.582
2022-10-22T14:14:01.914Z,1011.55
2022-10-22T14:21:02.277Z,1011.55
2022-10-22T14:28:02.112Z,1011.441
2022-10-22T14:35:01.841Z,1011.441
2022-10-22T14:42:02.005Z,1011.496
2022-10-22T14:49:02.313Z,1011.496
2022-10-22T14:56:01.576Z,1011.474
2022-10-22T15:00:02.169Z,1011.474
2022-10-22T15:07:02.089Z,1011.525
2022-10-22T15:14:01.815Z,1011.525
2022-10-22T15:21:01.635Z,1011.468
2022-10-22T15:28:09.195Z,1011.468
2022-10-22T15:35:02.325Z,1011.587
2022-10-22T15:42:01.380Z,1011.587
2022-10-22T15:49:02.231Z,1011.655
2022-10-22T15:56:02.162Z,1011.655
2022-10-22T16:00:01.733Z,1011.757
2022-10-22T16:07:02.144Z,1011.757
2022-10-22T16:14:01.534Z,1011.877
2022-10-22T16:21:02.130Z,1011.877
2022-10-22T16:28:01.655Z,1011.843
2022-10-22T16:35:01.984Z,1011.801
2022-10-22T16:42:02.038Z,1011.801
2022-10-22T16:49:01.449Z,1011.815
2022-10-22T16:56:02.026Z,1011.815
2022-10-22T17:00:01.561Z,1011.815
2022-10-22T17:07:02.274Z,1012.044
2022-10-22T17:14:01.473Z,1012.062
2022-10-22T17:21:02.210Z,1012.062
2022-10-22T17:28:02.337Z,1012.142
2022-10-22T17:35:02.252Z,1012.142
2022-10-22T17:42:01.370Z,1012.164
2022-10-22T17:49:01.428Z,1012.164
2022-10-22T17:56:02.331Z,1012.315
2022-10-22T18:00:01.964Z,1012.315
2022-10-22T18:07:01.641Z,1012.253
2022-10-22T18:14:01.933Z,1012.253
2022-10-22T18:21:01.455Z,1012.297
2022-10-22T18:28:02.204Z,1012.297
2022-10-22T18:35:02.108Z,1012.361
2022-10-22T18:42:01.828Z,1012.361
2022-10-22T18:49:01.722Z,1012.268
2022-10-22T18:56:01.763Z,1012.226
2022-10-22T19:00:02.567Z,1012.226
2022-10-22T19:07:01.522Z,1012.226
2022-10-22T19:14:02.158Z,1012.206
2022-10-22T19:21:02.106Z,1012.206
2022-10-22T19:28:01.675Z,1012.169
2022-10-22T19:35:02.068Z,1012.038
2022-10-22T19:42:01.816Z,1012.038
2022-10-22T19:49:01.570Z,1012.179
2022-10-22T19:56:02.268Z,1012.179
2022-10-22T20:00:02.122Z,1012.179
2022-10-22T20:07:02.330Z,1012.175
2022-10-22T20:14:02.255Z,1012.166
2022-10-22T20:21:01.816Z,1012.166
2022-10-22T20:28:02.095Z,1012.249
2022-10-22T20:35:02.563Z,1012.249
2022-10-22T20:42:02.006Z,1012.158
2022-10-22T20:49:02.158Z,1012.158
2022-10-22T20:56:01.906Z,1012.107
2022-10-22T21:00:02.567Z,1012.107
2022-10-22T21:07:01.950Z,1012.25
2022-10-22T21:14:01.765Z,1012.25
2022-10-22T21:21:01.990Z,1012.349
2022-10-22T21:28:01.399Z,1012.349
2022-10-22T21:35:02.145Z,1012.402
2022-10-22T21:42:01.966Z,1012.402
2022-10-22T21:49:02.239Z,1012.197
2022-10-22T21:56:01.565Z,1012.391
2022-10-22T22:00:02.190Z,1012.391
2022-10-22T22:07:01.801Z,1012.391
2022-10-22T22:14:01.623Z,1012.243
2022-10-22T22:21:01.476Z,1012.243
2022-10-22T22:28:01.387Z,1012.208
2022-10-22T22:35:02.312Z,1012.074
2022-10-22T22:42:01.780Z,1012.074
2022-10-22T22:49:01.577Z,1012.208
2022-10-22T22:56:02.094Z,1012.208
2022-10-22T23:00:01.676Z,1012.208
2022-10-22T23:07:02.292Z,1012.043
2022-10-22T23:14:01.661Z,1011.921
2022-10-22T23:21:01.759Z,1011.921
2022-10-22T23:28:01.549Z,1012.061
2022-10-22T23:35:02.415Z,1012.061
2022-10-22T23:42:01.565Z,1011.962
2022-10-22T23:49:01.843Z,1011.962
2022-10-22T23:56:01.821Z,1011.76
